Aurelius, New York
Current Conditions -  °F | °C
As of 4:54 AM on Saturday 22 Nov 2014 (Local Time) from KSYR Reporting Station
Scattered Clouds Scattered Clouds  
Wind Chill: 15°   Ceiling: Unl
Heat Index: 23°   Visibility: 10mi
Dew Point: 12°   Wind: 7mph
Humidity: 63%   Direction: 190°S
Pressure: 30.34"   Gusts: NA
Location:  42.9235°N, 76.5525°W
Report Text: KSYR 220954Z 19006KT 10SM FEW033 SCT140 M05/M11 A3034 RMK AO2 SLP278 SCT V BKN T10501111 $
Loading
Personal Weather Stations






























Interactive Weather Map New forecast layout! Learn more

10-Day Weather Forecast

Advertisements
Track Severe Weather on mobile